createdAt,value
2018-12-06T00:00:18.394Z,0.70
2018-12-06T00:02:45.885Z,0.70
2018-12-06T00:05:13.362Z,0.80
2018-12-06T00:07:51.104Z,0.80
2018-12-06T00:10:18.583Z,0.70
2018-12-06T00:12:46.069Z,0.70
2018-12-06T00:15:25.404Z,0.70
2018-12-06T00:17:52.866Z,0.60
2018-12-06T00:20:20.350Z,0.60
2018-12-06T00:22:47.846Z,0.50
2018-12-06T00:25:15.407Z,0.50
2018-12-06T00:27:42.906Z,0.50
2018-12-06T00:30:21.988Z,0.50
2018-12-06T00:32:49.482Z,0.50
2018-12-06T00:35:16.949Z,0.60
2018-12-06T00:37:44.520Z,0.70
2018-12-06T00:40:11.999Z,0.60
2018-12-06T00:42:39.533Z,0.50
2018-12-06T00:45:07.223Z,0.60
2018-12-06T00:47:34.843Z,0.50
2018-12-06T00:50:02.347Z,0.50
2018-12-06T00:52:29.810Z,0.40
2018-12-06T00:54:57.294Z,0.40
2018-12-06T00:57:24.818Z,0.50
2018-12-06T00:59:52.372Z,0.50
2018-12-06T01:02:20.043Z,0.40
2018-12-06T01:04:47.644Z,0.30
2018-12-06T01:07:15.239Z,0.30
2018-12-06T01:09:42.850Z,0.30
2018-12-06T01:12:10.434Z,0.20
2018-12-06T01:14:39.470Z,0.20
2018-12-06T01:17:07.140Z,0.20
2018-12-06T01:19:34.578Z,0.20
2018-12-06T01:22:02.146Z,0.20
2018-12-06T01:24:29.630Z,0.20
2018-12-06T01:26:57.099Z,0.20
2018-12-06T01:29:24.582Z,0.20
2018-12-06T01:31:52.603Z,0.30
2018-12-06T01:34:20.067Z,0.30
2018-12-06T01:36:47.514Z,0.30
2018-12-06T01:39:14.987Z,0.30
2018-12-06T01:41:42.472Z,0.30
2018-12-06T01:44:09.919Z,0.30
2018-12-06T01:46:37.411Z,0.30
2018-12-06T01:49:04.845Z,0.30
2018-12-06T01:51:32.348Z,0.40
2018-12-06T01:53:59.897Z,0.40
2018-12-06T01:56:27.351Z,0.50
2018-12-06T01:58:54.829Z,0.60
2018-12-06T02:01:22.265Z,0.50
2018-12-06T02:03:49.818Z,0.50
2018-12-06T02:06:17.306Z,0.50
2018-12-06T02:08:44.749Z,0.50
2018-12-06T02:11:12.255Z,0.50
2018-12-06T02:13:39.723Z,0.50
2018-12-06T02:16:07.227Z,0.50
2018-12-06T02:18:34.687Z,0.50
2018-12-06T02:21:02.313Z,0.50
2018-12-06T02:23:29.766Z,0.50
2018-12-06T02:25:57.257Z,0.70
2018-12-06T02:28:24.736Z,0.70
2018-12-06T02:30:52.189Z,0.60
2018-12-06T02:33:19.776Z,0.60
2018-12-06T02:35:47.356Z,0.60
2018-12-06T02:38:14.819Z,0.50
2018-12-06T02:40:42.288Z,0.50
2018-12-06T02:43:09.948Z,0.50
2018-12-06T02:45:37.472Z,0.50
2018-12-06T02:48:04.923Z,0.50
2018-12-06T02:50:32.537Z,0.50
2018-12-06T02:53:00.005Z,0.50
2018-12-06T02:55:27.684Z,0.50
2018-12-06T02:57:55.178Z,0.50
2018-12-06T03:00:22.649Z,0.50
2018-12-06T03:02:50.095Z,0.50
2018-12-06T03:05:17.639Z,0.50
2018-12-06T03:07:45.087Z,0.50
2018-12-06T03:10:12.899Z,0.50
2018-12-06T03:12:40.370Z,0.50
2018-12-06T03:15:08.005Z,0.50
2018-12-06T03:17:35.469Z,0.40
2018-12-06T03:20:04.636Z,0.40
2018-12-06T03:22:32.129Z,0.40
2018-12-06T03:24:59.790Z,0.40
2018-12-06T03:27:27.275Z,0.40
2018-12-06T03:29:54.734Z,0.40
2018-12-06T03:32:22.196Z,0.40
2018-12-06T03:34:49.732Z,0.40
2018-12-06T03:37:17.305Z,0.40
2018-12-06T03:39:44.763Z,0.30
2018-12-06T03:42:12.239Z,0.30
2018-12-06T03:44:39.722Z,0.40
2018-12-06T03:47:07.159Z,0.40
2018-12-06T03:49:34.826Z,0.40
2018-12-06T03:52:02.274Z,0.50
2018-12-06T03:54:29.711Z,0.50
2018-12-06T03:56:57.182Z,0.50
2018-12-06T03:59:24.652Z,0.40
2018-12-06T04:01:52.249Z,0.30
2018-12-06T04:04:19.714Z,0.30
2018-12-06T04:06:47.219Z,0.30
2018-12-06T04:09:14.718Z,0.30
2018-12-06T04:11:42.166Z,0.40
2018-12-06T04:14:09.626Z,0.50
2018-12-06T04:16:37.139Z,0.50
2018-12-06T04:19:04.608Z,0.40
2018-12-06T04:21:32.051Z,0.30
2018-12-06T04:23:59.516Z,0.30
2018-12-06T04:26:26.984Z,0.20
2018-12-06T04:28:54.484Z,0.10
2018-12-06T04:31:21.938Z,0.20
2018-12-06T04:33:49.407Z,0.20
2018-12-06T04:38:40.366Z,0.20
2018-12-06T04:41:07.947Z,0.30
2018-12-06T04:43:35.418Z,0.30
2018-12-06T04:46:03.072Z,0.40
2018-12-06T04:48:30.559Z,0.40
2018-12-06T04:50:58.020Z,0.30
2018-12-06T04:53:25.595Z,0.40
2018-12-06T04:55:53.161Z,0.30
2018-12-06T04:58:20.683Z,0.20
2018-12-06T05:00:48.150Z,0.20
2018-12-06T05:03:15.643Z,0.20
2018-12-06T05:05:43.204Z,0.20
2018-12-06T05:08:10.683Z,0.00
2018-12-06T05:10:38.175Z,0.20
2018-12-06T05:13:05.667Z,0.30
2018-12-06T05:15:33.124Z,0.20
2018-12-06T05:18:00.720Z,0.20
2018-12-06T05:20:28.214Z,0.10
2018-12-06T05:22:55.654Z,0.10
2018-12-06T05:25:23.156Z,0.10
2018-12-06T05:27:50.706Z,0.10
2018-12-06T05:30:18.188Z,0.10
2018-12-06T05:32:45.618Z,0.10
2018-12-06T05:35:13.099Z,0.10
2018-12-06T05:37:40.618Z,0.20
2018-12-06T05:40:08.105Z,0.20
2018-12-06T05:42:35.604Z,0.20
2018-12-06T05:45:03.195Z,0.20
2018-12-06T05:47:30.892Z,0.30
2018-12-06T05:49:58.451Z,0.20
2018-12-06T05:52:25.950Z,0.20
2018-12-06T05:54:53.406Z,0.20
2018-12-06T05:57:20.872Z,0.20
2018-12-06T05:59:48.774Z,0.20
2018-12-06T06:02:16.252Z,0.30
2018-12-06T06:04:43.688Z,0.30
2018-12-06T06:07:11.216Z,0.30
2018-12-06T06:09:38.727Z,0.30
2018-12-06T06:12:06.175Z,0.30
2018-12-06T06:14:33.667Z,0.30
2018-12-06T06:17:01.224Z,0.30
2018-12-06T06:19:28.739Z,0.30
2018-12-06T06:21:56.186Z,0.30
2018-12-06T06:24:23.660Z,0.30
2018-12-06T06:26:51.139Z,0.30
2018-12-06T06:29:18.624Z,0.40
2018-12-06T06:31:46.191Z,0.40
2018-12-06T06:34:13.670Z,0.40
2018-12-06T06:36:41.166Z,0.40
2018-12-06T06:39:10.225Z,0.50
2018-12-06T06:41:37.916Z,0.50
2018-12-06T06:44:05.619Z,0.50
2018-12-06T06:46:33.102Z,0.60
2018-12-06T06:49:00.772Z,0.70
2018-12-06T06:51:28.224Z,0.80
2018-12-06T06:53:55.691Z,0.80
2018-12-06T06:56:23.183Z,0.90
2018-12-06T06:58:50.675Z,1.00
2018-12-06T07:01:18.149Z,0.80
2018-12-06T07:03:45.589Z,0.70
2018-12-06T07:06:13.052Z,0.60
2018-12-06T07:08:40.834Z,0.60
2018-12-06T07:11:08.305Z,0.50
2018-12-06T07:16:13.474Z,0.60
2018-12-06T07:18:40.982Z,0.60
2018-12-06T07:21:08.655Z,0.60
2018-12-06T07:23:36.127Z,0.60
2018-12-06T07:26:03.768Z,0.60
2018-12-06T07:28:31.263Z,0.60
2018-12-06T07:30:58.927Z,0.70
2018-12-06T07:33:26.428Z,0.70
2018-12-06T07:35:54.002Z,0.70
2018-12-06T07:38:21.479Z,0.70
2018-12-06T07:40:48.991Z,0.70
2018-12-06T07:43:16.579Z,0.70
2018-12-06T07:45:44.069Z,0.80
2018-12-06T07:48:11.578Z,0.80
2018-12-06T07:50:39.285Z,0.80
2018-12-06T07:53:06.745Z,0.80
2018-12-06T07:55:34.265Z,0.90
2018-12-06T07:58:01.771Z,0.90
2018-12-06T08:00:29.361Z,0.90
2018-12-06T08:02:56.809Z,0.90
2018-12-06T08:05:24.294Z,1.00
2018-12-06T08:07:51.756Z,1.00
2018-12-06T08:10:19.262Z,1.10
2018-12-06T08:12:46.860Z,1.10
2018-12-06T08:15:14.619Z,1.10
2018-12-06T08:17:42.123Z,1.20
2018-12-06T08:20:09.699Z,1.30
2018-12-06T08:22:37.141Z,1.20
2018-12-06T08:25:04.930Z,1.30
2018-12-06T08:27:32.404Z,1.20
2018-12-06T08:29:59.915Z,1.30
2018-12-06T08:32:27.355Z,1.30
2018-12-06T08:34:54.917Z,1.30
2018-12-06T08:37:22.400Z,1.40
2018-12-06T08:39:49.993Z,1.40
2018-12-06T08:42:17.485Z,1.50
2018-12-06T08:44:44.930Z,1.50
2018-12-06T08:47:12.384Z,1.50
2018-12-06T08:49:40.367Z,1.50
2018-12-06T08:52:07.820Z,1.60
2018-12-06T08:54:35.311Z,1.60
2018-12-06T08:57:02.762Z,1.80
2018-12-06T08:59:30.242Z,1.70
2018-12-06T09:01:57.726Z,1.80
2018-12-06T09:04:25.213Z,1.80
2018-12-06T09:06:52.674Z,1.70
2018-12-06T09:09:20.174Z,1.70
2018-12-06T09:11:47.708Z,1.70
2018-12-06T09:14:15.184Z,1.70
2018-12-06T09:16:42.676Z,1.70
2018-12-06T09:19:10.122Z,1.70
2018-12-06T09:21:37.577Z,1.70
2018-12-06T09:24:05.061Z,1.80
2018-12-06T09:26:32.504Z,1.80
2018-12-06T09:28:59.979Z,1.80
2018-12-06T09:31:27.455Z,1.80
2018-12-06T09:34:03.938Z,1.80
2018-12-06T09:36:31.531Z,1.90
2018-12-06T09:38:59.464Z,2.00
2018-12-06T09:41:26.938Z,2.00
2018-12-06T09:43:54.555Z,2.10
2018-12-06T09:46:22.270Z,2.20
2018-12-06T09:48:49.719Z,2.30
2018-12-06T09:51:17.223Z,2.40
2018-12-06T09:53:44.731Z,2.30
2018-12-06T09:56:12.194Z,2.30
2018-12-06T09:58:39.648Z,2.30
2018-12-06T10:01:07.263Z,2.20
2018-12-06T10:03:34.738Z,2.30
2018-12-06T10:06:02.224Z,2.30
2018-12-06T10:08:29.706Z,2.30
2018-12-06T10:10:57.171Z,2.20
2018-12-06T10:13:24.668Z,2.20
2018-12-06T10:15:52.098Z,2.30
2018-12-06T10:18:19.555Z,2.30
2018-12-06T10:20:47.172Z,2.20
2018-12-06T10:23:14.630Z,2.20
2018-12-06T10:25:42.098Z,2.20
2018-12-06T10:28:09.559Z,2.20
2018-12-06T10:30:37.027Z,2.20
2018-12-06T10:33:04.713Z,2.30
2018-12-06T10:35:32.215Z,2.30
2018-12-06T10:37:59.986Z,2.30
2018-12-06T10:40:27.639Z,2.30
2018-12-06T10:42:55.170Z,2.30
2018-12-06T10:45:22.630Z,2.40
2018-12-06T10:47:50.601Z,2.40
2018-12-06T10:50:18.081Z,2.40
2018-12-06T10:52:45.675Z,2.40
2018-12-06T10:55:13.170Z,2.40
2018-12-06T10:57:40.648Z,2.40
2018-12-06T11:00:13.196Z,2.50
2018-12-06T11:02:46.432Z,2.50
2018-12-06T11:05:13.914Z,2.60
2018-12-06T11:07:41.402Z,2.60
2018-12-06T11:10:09.104Z,2.60
2018-12-06T11:12:36.595Z,2.50
2018-12-06T11:15:04.965Z,2.50
2018-12-06T11:17:32.423Z,2.50
2018-12-06T11:19:59.899Z,2.40
2018-12-06T11:22:27.428Z,2.40
2018-12-06T11:24:54.927Z,2.40
2018-12-06T11:27:22.387Z,2.40
2018-12-06T11:29:49.966Z,2.40
2018-12-06T11:32:17.472Z,2.40
2018-12-06T11:34:44.938Z,2.40
2018-12-06T11:37:12.530Z,2.50
2018-12-06T11:39:40.010Z,2.50
2018-12-06T11:42:07.615Z,2.50
2018-12-06T11:44:35.075Z,2.50
2018-12-06T11:47:02.566Z,2.50
2018-12-06T11:49:30.056Z,2.50
2018-12-06T11:51:57.501Z,2.60
2018-12-06T11:54:24.960Z,2.50
2018-12-06T11:56:52.589Z,2.50
2018-12-06T11:59:20.042Z,2.50
2018-12-06T12:01:47.490Z,2.50
2018-12-06T12:04:14.965Z,2.50
2018-12-06T12:06:42.431Z,2.50
2018-12-06T12:09:09.923Z,2.50
2018-12-06T12:11:37.378Z,2.50
2018-12-06T12:14:04.918Z,2.50
2018-12-06T12:16:32.402Z,2.50
2018-12-06T12:18:59.898Z,2.50
2018-12-06T12:21:27.427Z,2.50
2018-12-06T12:23:55.035Z,2.50
2018-12-06T12:26:22.500Z,2.60
2018-12-06T12:28:49.992Z,2.60
2018-12-06T12:31:17.463Z,2.60
2018-12-06T12:33:44.923Z,2.60
2018-12-06T12:36:12.391Z,2.70
2018-12-06T12:38:39.867Z,2.70
2018-12-06T12:41:07.485Z,2.70
2018-12-06T12:43:34.942Z,2.70
2018-12-06T12:46:02.411Z,2.70
2018-12-06T12:48:29.899Z,2.80
2018-12-06T12:50:57.568Z,2.80
2018-12-06T12:53:25.234Z,2.80
2018-12-06T12:55:52.685Z,2.80
2018-12-06T12:58:20.151Z,2.80
2018-12-06T13:00:47.657Z,2.80
2018-12-06T13:03:15.151Z,2.80
2018-12-06T13:05:42.618Z,2.80
2018-12-06T13:08:10.077Z,2.70
2018-12-06T13:10:37.719Z,2.80
2018-12-06T13:13:05.249Z,2.70
2018-12-06T13:15:32.707Z,2.70
2018-12-06T13:18:00.183Z,2.80
2018-12-06T13:20:27.794Z,2.70
2018-12-06T13:22:55.318Z,2.70
2018-12-06T13:25:22.861Z,2.70
2018-12-06T13:27:50.453Z,2.70
2018-12-06T13:30:18.027Z,2.70
2018-12-06T13:32:45.472Z,2.80
2018-12-06T13:35:13.056Z,2.80
2018-12-06T13:37:40.534Z,2.80
2018-12-06T13:40:08.226Z,2.90
2018-12-06T13:42:35.727Z,2.80
2018-12-06T13:45:03.535Z,2.80
2018-12-06T13:47:31.022Z,2.90
2018-12-06T13:49:58.689Z,2.90
2018-12-06T13:52:26.153Z,2.80
2018-12-06T13:54:53.742Z,2.80
2018-12-06T13:57:21.196Z,2.90
2018-12-06T13:59:48.665Z,2.90
2018-12-06T14:02:16.190Z,2.90
2018-12-06T14:04:43.639Z,2.90
2018-12-06T14:07:11.075Z,2.90
2018-12-06T14:09:38.589Z,2.90
2018-12-06T14:12:06.064Z,2.90
2018-12-06T14:14:33.592Z,2.90
2018-12-06T14:17:01.047Z,2.90
2018-12-06T14:19:28.547Z,3.00
2018-12-06T14:21:56.016Z,2.90
2018-12-06T14:24:23.487Z,2.80
2018-12-06T14:26:50.969Z,2.80
2018-12-06T14:29:18.435Z,2.80
2018-12-06T14:31:45.927Z,2.90
2018-12-06T14:34:13.391Z,3.00
2018-12-06T14:36:40.870Z,3.00
2018-12-06T14:39:08.850Z,2.90
2018-12-06T14:41:36.435Z,3.00
2018-12-06T14:44:04.131Z,2.80
2018-12-06T14:46:31.627Z,2.70
2018-12-06T14:48:59.104Z,2.70
2018-12-06T14:51:26.555Z,2.60
2018-12-06T14:53:54.074Z,2.60
2018-12-06T14:56:21.523Z,2.70
2018-12-06T14:58:49.131Z,2.70
2018-12-06T15:01:16.666Z,2.70
2018-12-06T15:03:44.125Z,2.70
2018-12-06T15:06:11.818Z,2.70
2018-12-06T15:08:39.281Z,2.80
2018-12-06T15:11:06.794Z,2.90
2018-12-06T15:13:35.796Z,2.90
2018-12-06T15:16:03.751Z,2.90
2018-12-06T15:18:31.250Z,2.80
2018-12-06T15:20:58.834Z,2.70
2018-12-06T15:23:26.751Z,2.60
2018-12-06T15:25:54.204Z,2.70
2018-12-06T15:28:21.640Z,2.60
2018-12-06T15:30:49.180Z,2.50
2018-12-06T15:33:16.650Z,2.50
2018-12-06T15:35:44.122Z,2.50
2018-12-06T15:38:11.567Z,2.40
2018-12-06T15:40:39.045Z,2.50
2018-12-06T15:43:06.516Z,2.50
2018-12-06T15:45:33.993Z,2.40
2018-12-06T15:48:01.486Z,2.40
2018-12-06T15:50:28.964Z,2.30
2018-12-06T15:52:56.430Z,2.30
2018-12-06T15:55:24.091Z,2.30
2018-12-06T15:57:51.576Z,2.40
2018-12-06T16:00:19.257Z,2.40
2018-12-06T16:02:47.064Z,2.40
2018-12-06T16:05:15.410Z,2.40
2018-12-06T16:07:43.207Z,2.50
2018-12-06T16:10:11.018Z,2.40
2018-12-06T16:12:39.003Z,2.50
2018-12-06T16:15:08.245Z,2.30
2018-12-06T16:17:35.728Z,2.30
2018-12-06T16:20:04.768Z,2.40
2018-12-06T16:22:32.240Z,2.40
2018-12-06T16:24:59.879Z,2.30
2018-12-06T16:27:27.475Z,2.30
2018-12-06T16:29:55.125Z,2.30
2018-12-06T16:32:22.576Z,2.30
2018-12-06T16:34:50.030Z,2.30
2018-12-06T16:37:17.656Z,2.30
2018-12-06T16:39:45.119Z,2.30
2018-12-06T16:42:12.594Z,2.20
2018-12-06T16:44:40.258Z,2.20
2018-12-06T16:47:07.781Z,2.20
2018-12-06T16:49:35.764Z,2.20
2018-12-06T16:52:03.411Z,2.20
2018-12-06T16:54:31.020Z,2.20
2018-12-06T16:56:58.620Z,2.20
2018-12-06T16:59:26.148Z,2.20
2018-12-06T17:01:53.613Z,2.20
2018-12-06T17:04:21.339Z,2.20
2018-12-06T17:06:48.860Z,2.10
2018-12-06T17:09:16.438Z,2.10
2018-12-06T17:11:43.939Z,2.10
2018-12-06T17:14:11.488Z,2.20
2018-12-06T17:16:39.035Z,2.20
2018-12-06T17:19:06.620Z,2.20
2018-12-06T17:21:34.059Z,2.20
2018-12-06T17:24:01.550Z,2.10
2018-12-06T17:26:29.243Z,2.10
2018-12-06T17:28:56.749Z,2.10
2018-12-06T17:31:24.220Z,2.10
2018-12-06T17:33:51.871Z,2.10
2018-12-06T17:36:19.426Z,2.10
2018-12-06T17:38:46.931Z,2.10
2018-12-06T17:41:14.513Z,2.20
2018-12-06T17:43:42.049Z,2.20
2018-12-06T17:46:09.539Z,2.20
2018-12-06T17:48:36.986Z,2.20
2018-12-06T17:51:04.456Z,2.20
2018-12-06T17:53:31.943Z,2.30
2018-12-06T17:56:00.155Z,2.20
2018-12-06T17:58:27.728Z,2.30
2018-12-06T18:00:55.183Z,2.30
2018-12-06T18:03:22.987Z,2.30
2018-12-06T18:05:50.443Z,2.20
2018-12-06T18:08:18.120Z,2.20
2018-12-06T18:10:45.630Z,2.20
2018-12-06T18:13:13.095Z,2.20
2018-12-06T18:15:40.868Z,2.20
2018-12-06T18:18:08.377Z,2.20
2018-12-06T18:20:36.003Z,2.20
2018-12-06T18:23:04.277Z,2.20
2018-12-06T18:25:31.779Z,2.20
2018-12-06T18:27:59.323Z,2.20
2018-12-06T18:30:26.891Z,2.20
2018-12-06T18:32:54.339Z,2.20
2018-12-06T18:35:21.811Z,2.20
2018-12-06T18:37:49.272Z,2.20
2018-12-06T18:40:16.743Z,2.20
2018-12-06T18:42:44.227Z,2.20
2018-12-06T18:45:11.855Z,2.20
2018-12-06T18:47:39.298Z,2.30
2018-12-06T18:50:06.952Z,2.30
2018-12-06T18:52:34.440Z,2.40
2018-12-06T18:55:02.047Z,2.30
2018-12-06T18:57:29.652Z,2.40
2018-12-06T18:59:57.154Z,2.40
2018-12-06T19:02:24.631Z,2.40
2018-12-06T19:04:52.194Z,2.30
2018-12-06T19:07:19.662Z,2.30
2018-12-06T19:09:47.358Z,2.30
2018-12-06T19:12:14.940Z,2.30
2018-12-06T19:14:42.411Z,2.30
2018-12-06T19:17:09.892Z,2.30
2018-12-06T19:19:37.391Z,2.30
2018-12-06T19:22:04.998Z,2.30
2018-12-06T19:24:32.458Z,2.40
2018-12-06T19:26:59.983Z,2.50
2018-12-06T19:29:27.432Z,2.50
2018-12-06T19:31:54.886Z,2.50
2018-12-06T19:34:22.404Z,2.50
2018-12-06T19:36:49.869Z,2.60
2018-12-06T19:39:17.391Z,2.50
2018-12-06T19:41:44.855Z,2.60
2018-12-06T19:44:12.937Z,2.60
2018-12-06T19:46:40.389Z,2.60
2018-12-06T19:49:07.838Z,2.60
2018-12-06T19:51:35.358Z,2.60
2018-12-06T19:54:02.950Z,2.60
2018-12-06T19:56:30.434Z,2.60
2018-12-06T19:58:57.926Z,2.60
2018-12-06T20:01:25.428Z,2.70
2018-12-06T20:03:52.970Z,2.60
2018-12-06T20:06:20.436Z,2.60
2018-12-06T20:08:47.909Z,2.60
2018-12-06T20:11:15.424Z,2.70
2018-12-06T20:13:43.004Z,2.80
2018-12-06T20:16:10.594Z,2.80
2018-12-06T20:18:38.100Z,2.80
2018-12-06T20:21:05.627Z,2.90
2018-12-06T20:23:33.194Z,2.80
2018-12-06T20:26:01.391Z,2.70
2018-12-06T20:28:28.893Z,2.80
2018-12-06T20:30:56.569Z,2.60
2018-12-06T20:33:24.329Z,2.60
2018-12-06T20:35:51.904Z,2.60
2018-12-06T20:38:19.382Z,2.60
2018-12-06T20:40:46.831Z,2.60
2018-12-06T20:43:14.421Z,2.60
2018-12-06T20:45:41.877Z,2.70
2018-12-06T20:48:09.377Z,2.70
2018-12-06T20:50:37.196Z,2.70
2018-12-06T20:53:04.727Z,2.80
2018-12-06T20:55:32.282Z,2.80
2018-12-06T20:57:59.944Z,2.80
2018-12-06T21:00:27.409Z,2.70
2018-12-06T21:02:54.884Z,2.60
2018-12-06T21:05:22.429Z,2.60
2018-12-06T21:07:50.014Z,2.60
2018-12-06T21:10:17.488Z,2.60
2018-12-06T21:12:44.964Z,2.70
2018-12-06T21:15:19.517Z,2.70
2018-12-06T21:17:47.063Z,2.90
2018-12-06T21:20:14.525Z,2.90
2018-12-06T21:22:42.086Z,3.00
2018-12-06T21:25:09.766Z,2.90
2018-12-06T21:27:37.235Z,2.90
2018-12-06T21:30:05.275Z,2.90
2018-12-06T21:32:32.762Z,2.90
2018-12-06T21:35:00.225Z,3.00
2018-12-06T21:37:27.708Z,3.10
2018-12-06T21:39:55.171Z,3.00
2018-12-06T21:42:22.631Z,3.10
2018-12-06T21:44:50.096Z,3.10
2018-12-06T21:47:24.890Z,3.00
2018-12-06T21:49:53.087Z,3.00
2018-12-06T21:52:20.529Z,3.20
2018-12-06T21:54:48.174Z,3.20
2018-12-06T21:57:15.713Z,3.20
2018-12-06T21:59:43.535Z,3.30
2018-12-06T22:02:28.279Z,3.20
2018-12-06T22:04:55.759Z,3.30
2018-12-06T22:07:23.363Z,3.20
2018-12-06T22:09:50.950Z,3.10
2018-12-06T22:12:18.497Z,3.00
2018-12-06T22:14:46.280Z,3.10
2018-12-06T22:17:13.794Z,3.30
2018-12-06T22:19:41.252Z,3.30
2018-12-06T22:22:08.747Z,3.30
2018-12-06T22:24:36.199Z,3.50
2018-12-06T22:27:03.823Z,3.50
2018-12-06T22:29:31.444Z,3.50
2018-12-06T22:31:58.888Z,3.50
2018-12-06T22:34:26.382Z,3.40
2018-12-06T22:36:53.887Z,3.50
2018-12-06T22:39:21.371Z,3.50
2018-12-06T22:41:49.054Z,3.40
2018-12-06T22:44:16.549Z,3.50
2018-12-06T22:46:44.026Z,3.50
2018-12-06T22:49:11.650Z,3.50
2018-12-06T22:51:39.135Z,3.50
2018-12-06T22:54:06.630Z,3.50
2018-12-06T22:56:34.132Z,3.60
2018-12-06T22:59:01.588Z,3.60
2018-12-06T23:01:34.852Z,3.60
2018-12-06T23:04:02.396Z,3.70
2018-12-06T23:06:29.994Z,3.70
2018-12-06T23:08:57.587Z,3.70
2018-12-06T23:11:25.039Z,3.70
2018-12-06T23:13:52.519Z,3.70
2018-12-06T23:16:20.019Z,3.70
2018-12-06T23:18:47.504Z,3.80
2018-12-06T23:21:14.990Z,3.80
2018-12-06T23:23:42.450Z,3.80
2018-12-06T23:26:09.947Z,3.80
2018-12-06T23:28:37.404Z,3.80
2018-12-06T23:31:04.888Z,3.80
2018-12-06T23:33:32.374Z,3.90
2018-12-06T23:35:59.960Z,3.90
2018-12-06T23:38:27.485Z,4.00
2018-12-06T23:40:54.923Z,4.00
2018-12-06T23:43:22.634Z,4.00
2018-12-06T23:45:50.140Z,4.00
2018-12-06T23:48:17.604Z,4.10
2018-12-06T23:50:45.090Z,4.30
2018-12-06T23:53:12.530Z,4.20
2018-12-06T23:55:40.205Z,4.30
2018-12-06T23:58:07.964Z,4.30
